sensor_id;sensor_type;location;lat;lon;timestamp;temperature;humidity
6758;DHT22;3416;53.074;8.822;2022-09-17T00:02:20;12.60;99.90
6758;DHT22;3416;53.074;8.822;2022-09-17T00:04:50;12.60;99.90
6758;DHT22;3416;53.074;8.822;2022-09-17T00:07:17;12.60;99.90
6758;DHT22;3416;53.074;8.822;2022-09-17T00:09:44;12.60;99.90
6758;DHT22;3416;53.074;8.822;2022-09-17T00:12:11;12.50;99.90
6758;DHT22;3416;53.074;8.822;2022-09-17T00:14:41;12.60;99.90
6758;DHT22;3416;53.074;8.822;2022-09-17T00:17:08;12.40;99.90
6758;DHT22;3416;53.074;8.822;2022-09-17T00:19:35;12.40;99.90
6758;DHT22;3416;53.074;8.822;2022-09-17T00:22:02;12.30;99.90
6758;DHT22;3416;53.074;8.822;2022-09-17T00:24:30;12.30;99.90
6758;DHT22;3416;53.074;8.822;2022-09-17T00:26:56;12.20;99.90
6758;DHT22;3416;53.074;8.822;2022-09-17T00:29:25;12.20;99.90
6758;DHT22;3416;53.074;8.822;2022-09-17T00:31:53;12.10;99.90
6758;DHT22;3416;53.074;8.822;2022-09-17T00:34:21;12.10;99.90
6758;DHT22;3416;53.074;8.822;2022-09-17T00:36:48;12.10;99.90
6758;DHT22;3416;53.074;8.822;2022-09-17T00:39:16;12.10;99.90
6758;DHT22;3416;53.074;8.822;2022-09-17T00:41:43;12.10;99.90
6758;DHT22;3416;53.074;8.822;2022-09-17T00:47:26;12.10;99.90
6758;DHT22;3416;53.074;8.822;2022-09-17T00:49:56;12.20;99.90
6758;DHT22;3416;53.074;8.822;2022-09-17T00:52:28;12.10;99.90
6758;DHT22;3416;53.074;8.822;2022-09-17T00:55:07;12.10;99.90
6758;DHT22;3416;53.074;8.822;2022-09-17T00:57:35;12.00;99.90
6758;DHT22;3416;53.074;8.822;2022-09-17T01:00:04;12.00;99.90
6758;DHT22;3416;53.074;8.822;2022-09-17T01:02:34;12.00;99.90
6758;DHT22;3416;53.074;8.822;2022-09-17T01:05:01;12.00;99.90
6758;DHT22;3416;53.074;8.822;2022-09-17T01:07:56;12.00;99.90
6758;DHT22;3416;53.074;8.822;2022-09-17T01:10:37;12.00;99.90
6758;DHT22;3416;53.074;8.822;2022-09-17T01:13:17;12.00;99.90
6758;DHT22;3416;53.074;8.822;2022-09-17T01:15:53;11.90;99.90
6758;DHT22;3416;53.074;8.822;2022-09-17T01:18:31;11.90;99.90
6758;DHT22;3416;53.074;8.822;2022-09-17T01:21:26;11.80;99.90
6758;DHT22;3416;53.074;8.822;2022-09-17T01:27:33;11.80;99.90
6758;DHT22;3416;53.074;8.822;2022-09-17T01:33:12;11.80;99.90
6758;DHT22;3416;53.074;8.822;2022-09-17T01:35:48;11.80;99.90
6758;DHT22;3416;53.074;8.822;2022-09-17T01:38:24;11.80;99.90
6758;DHT22;3416;53.074;8.822;2022-09-17T01:40:55;11.80;99.90
6758;DHT22;3416;53.074;8.822;2022-09-17T01:43:29;11.80;99.90
6758;DHT22;3416;53.074;8.822;2022-09-17T01:46:03;11.80;99.90
6758;DHT22;3416;53.074;8.822;2022-09-17T01:48:37;11.80;99.90
6758;DHT22;3416;53.074;8.822;2022-09-17T01:51:08;11.80;99.90
6758;DHT22;3416;53.074;8.822;2022-09-17T01:53:40;11.90;99.90
6758;DHT22;3416;53.074;8.822;2022-09-17T01:56:12;12.00;99.90
6758;DHT22;3416;53.074;8.822;2022-09-17T01:58:43;11.90;99.90
6758;DHT22;3416;53.074;8.822;2022-09-17T02:01:15;11.90;99.90
6758;DHT22;3416;53.074;8.822;2022-09-17T02:03:50;11.90;99.90
6758;DHT22;3416;53.074;8.822;2022-09-17T02:06:23;11.80;99.90
6758;DHT22;3416;53.074;8.822;2022-09-17T02:08:55;11.80;99.90
6758;DHT22;3416;53.074;8.822;2022-09-17T02:11:23;11.90;99.90
6758;DHT22;3416;53.074;8.822;2022-09-17T02:13:54;11.90;99.90
6758;DHT22;3416;53.074;8.822;2022-09-17T02:16:24;11.80;99.90
6758;DHT22;3416;53.074;8.822;2022-09-17T02:18:57;11.90;99.90
6758;DHT22;3416;53.074;8.822;2022-09-17T02:21:30;11.80;99.90
6758;DHT22;3416;53.074;8.822;2022-09-17T02:24:06;11.80;99.90
6758;DHT22;3416;53.074;8.822;2022-09-17T02:26:39;11.90;99.90
6758;DHT22;3416;53.074;8.822;2022-09-17T02:29:13;11.80;99.90
6758;DHT22;3416;53.074;8.822;2022-09-17T02:31:42;11.90;99.90
6758;DHT22;3416;53.074;8.822;2022-09-17T02:34:11;11.80;99.90
6758;DHT22;3416;53.074;8.822;2022-09-17T02:36:38;11.90;99.90
6758;DHT22;3416;53.074;8.822;2022-09-17T02:39:05;11.90;99.90
6758;DHT22;3416;53.074;8.822;2022-09-17T02:41:43;11.90;99.90
6758;DHT22;3416;53.074;8.822;2022-09-17T02:44:21;11.90;99.90
6758;DHT22;3416;53.074;8.822;2022-09-17T02:47:22;12.00;99.90
6758;DHT22;3416;53.074;8.822;2022-09-17T02:50:11;12.10;99.90
6758;DHT22;3416;53.074;8.822;2022-09-17T02:52:48;12.20;99.90
6758;DHT22;3416;53.074;8.822;2022-09-17T02:55:21;12.20;99.90
6758;DHT22;3416;53.074;8.822;2022-09-17T02:57:54;12.30;99.90
6758;DHT22;3416;53.074;8.822;2022-09-17T03:00:24;12.30;99.90
6758;DHT22;3416;53.074;8.822;2022-09-17T03:02:56;12.30;99.90
6758;DHT22;3416;53.074;8.822;2022-09-17T03:05:25;12.30;99.90
6758;DHT22;3416;53.074;8.822;2022-09-17T03:07:54;12.20;99.90
6758;DHT22;3416;53.074;8.822;2022-09-17T03:10:21;12.30;99.90
6758;DHT22;3416;53.074;8.822;2022-09-17T03:12:48;12.30;99.90
6758;DHT22;3416;53.074;8.822;2022-09-17T03:15:15;12.40;99.90
6758;DHT22;3416;53.074;8.822;2022-09-17T03:17:43;12.30;99.90
6758;DHT22;3416;53.074;8.822;2022-09-17T03:20:10;12.30;99.90
6758;DHT22;3416;53.074;8.822;2022-09-17T03:22:39;12.30;99.90
6758;DHT22;3416;53.074;8.822;2022-09-17T03:25:07;12.20;99.90
6758;DHT22;3416;53.074;8.822;2022-09-17T03:27:34;12.30;99.90
6758;DHT22;3416;53.074;8.822;2022-09-17T03:30:01;12.30;99.90
6758;DHT22;3416;53.074;8.822;2022-09-17T03:32:28;12.20;99.90
6758;DHT22;3416;53.074;8.822;2022-09-17T03:34:55;12.10;99.90
6758;DHT22;3416;53.074;8.822;2022-09-17T03:37:22;12.10;99.90
6758;DHT22;3416;53.074;8.822;2022-09-17T03:39:51;12.00;99.90
6758;DHT22;3416;53.074;8.822;2022-09-17T03:42:18;12.00;99.90
6758;DHT22;3416;53.074;8.822;2022-09-17T03:44:45;12.00;99.90
6758;DHT22;3416;53.074;8.822;2022-09-17T03:47:12;11.90;99.90
6758;DHT22;3416;53.074;8.822;2022-09-17T03:49:41;11.90;99.90
6758;DHT22;3416;53.074;8.822;2022-09-17T03:52:08;11.80;99.90
6758;DHT22;3416;53.074;8.822;2022-09-17T03:54:35;11.80;99.90
6758;DHT22;3416;53.074;8.822;2022-09-17T03:57:03;11.80;99.90
6758;DHT22;3416;53.074;8.822;2022-09-17T03:59:30;11.80;99.90
6758;DHT22;3416;53.074;8.822;2022-09-17T04:01:57;11.80;99.90
6758;DHT22;3416;53.074;8.822;2022-09-17T04:04:24;11.70;99.90
6758;DHT22;3416;53.074;8.822;2022-09-17T04:06:51;11.80;99.90
6758;DHT22;3416;53.074;8.822;2022-09-17T04:09:19;11.80;99.90
6758;DHT22;3416;53.074;8.822;2022-09-17T04:11:45;11.70;99.90
6758;DHT22;3416;53.074;8.822;2022-09-17T04:14:14;11.60;99.90
6758;DHT22;3416;53.074;8.822;2022-09-17T04:16:41;11.60;99.90
6758;DHT22;3416;53.074;8.822;2022-09-17T04:19:08;11.50;99.90
6758;DHT22;3416;53.074;8.822;2022-09-17T04:21:35;11.50;99.90
6758;DHT22;3416;53.074;8.822;2022-09-17T04:24:01;11.50;99.90
6758;DHT22;3416;53.074;8.822;2022-09-17T04:26:28;11.40;99.90
6758;DHT22;3416;53.074;8.822;2022-09-17T04:28:55;11.40;99.90
6758;DHT22;3416;53.074;8.822;2022-09-17T04:31:24;11.40;99.90
6758;DHT22;3416;53.074;8.822;2022-09-17T04:33:51;11.40;99.90
6758;DHT22;3416;53.074;8.822;2022-09-17T04:36:19;11.50;99.90
6758;DHT22;3416;53.074;8.822;2022-09-17T04:38:47;11.50;99.90
6758;DHT22;3416;53.074;8.822;2022-09-17T04:41:14;11.40;99.90
6758;DHT22;3416;53.074;8.822;2022-09-17T04:43:41;11.40;99.90
6758;DHT22;3416;53.074;8.822;2022-09-17T04:46:08;11.50;99.90
6758;DHT22;3416;53.074;8.822;2022-09-17T04:48:36;11.50;99.90
6758;DHT22;3416;53.074;8.822;2022-09-17T04:51:03;11.50;99.90
6758;DHT22;3416;53.074;8.822;2022-09-17T04:53:36;11.60;99.90
6758;DHT22;3416;53.074;8.822;2022-09-17T04:56:04;11.60;99.90
6758;DHT22;3416;53.074;8.822;2022-09-17T04:58:31;11.70;99.90
6758;DHT22;3416;53.074;8.822;2022-09-17T05:00:58;11.70;99.90
6758;DHT22;3416;53.074;8.822;2022-09-17T05:03:25;11.70;99.90
6758;DHT22;3416;53.074;8.822;2022-09-17T05:06:01;11.70;99.90
6758;DHT22;3416;53.074;8.822;2022-09-17T05:08:28;11.80;99.90
6758;DHT22;3416;53.074;8.822;2022-09-17T05:10:55;11.80;99.90
6758;DHT22;3416;53.074;8.822;2022-09-17T05:13:22;11.80;99.90
6758;DHT22;3416;53.074;8.822;2022-09-17T05:15:49;11.90;99.90
6758;DHT22;3416;53.074;8.822;2022-09-17T05:18:16;12.00;99.90
6758;DHT22;3416;53.074;8.822;2022-09-17T05:20:43;12.00;99.90
6758;DHT22;3416;53.074;8.822;2022-09-17T05:23:11;12.00;99.90
6758;DHT22;3416;53.074;8.822;2022-09-17T05:25:39;12.00;99.90
6758;DHT22;3416;53.074;8.822;2022-09-17T05:28:06;12.00;99.90
6758;DHT22;3416;53.074;8.822;2022-09-17T05:30:33;12.00;99.90
6758;DHT22;3416;53.074;8.822;2022-09-17T05:33:01;11.90;99.90
6758;DHT22;3416;53.074;8.822;2022-09-17T05:35:29;11.90;99.90
6758;DHT22;3416;53.074;8.822;2022-09-17T05:37:58;12.00;99.90
6758;DHT22;3416;53.074;8.822;2022-09-17T05:40:27;12.00;99.90
6758;DHT22;3416;53.074;8.822;2022-09-17T05:42:57;12.00;99.90
6758;DHT22;3416;53.074;8.822;2022-09-17T05:45:24;12.00;99.90
6758;DHT22;3416;53.074;8.822;2022-09-17T05:47:57;12.00;99.90
6758;DHT22;3416;53.074;8.822;2022-09-17T05:50:25;11.90;99.90
6758;DHT22;3416;53.074;8.822;2022-09-17T05:52:53;11.70;99.90
6758;DHT22;3416;53.074;8.822;2022-09-17T05:55:21;11.60;99.90
6758;DHT22;3416;53.074;8.822;2022-09-17T05:57:50;11.60;99.90
6758;DHT22;3416;53.074;8.822;2022-09-17T06:00:17;11.50;99.90
6758;DHT22;3416;53.074;8.822;2022-09-17T06:02:45;11.40;99.90
6758;DHT22;3416;53.074;8.822;2022-09-17T06:05:12;11.40;99.90
6758;DHT22;3416;53.074;8.822;2022-09-17T06:07:39;11.50;99.90
6758;DHT22;3416;53.074;8.822;2022-09-17T06:10:06;11.80;99.90
6758;DHT22;3416;53.074;8.822;2022-09-17T06:12:34;12.30;99.90
6758;DHT22;3416;53.074;8.822;2022-09-17T06:15:02;12.70;99.90
6758;DHT22;3416;53.074;8.822;2022-09-17T06:17:32;13.30;99.90
6758;DHT22;3416;53.074;8.822;2022-09-17T06:20:00;13.90;99.90
6758;DHT22;3416;53.074;8.822;2022-09-17T06:22:27;14.50;99.90
6758;DHT22;3416;53.074;8.822;2022-09-17T06:24:53;15.20;99.90
6758;DHT22;3416;53.074;8.822;2022-09-17T06:27:20;15.20;99.90
6758;DHT22;3416;53.074;8.822;2022-09-17T06:29:47;16.00;99.90
6758;DHT22;3416;53.074;8.822;2022-09-17T06:32:15;16.70;99.90
6758;DHT22;3416;53.074;8.822;2022-09-17T06:34:42;17.30;99.90
6758;DHT22;3416;53.074;8.822;2022-09-17T06:37:09;17.50;99.90
6758;DHT22;3416;53.074;8.822;2022-09-17T06:39:36;17.90;99.90
6758;DHT22;3416;53.074;8.822;2022-09-17T06:42:05;18.40;99.90
6758;DHT22;3416;53.074;8.822;2022-09-17T06:44:32;18.10;99.90
6758;DHT22;3416;53.074;8.822;2022-09-17T06:46:59;18.00;99.90
6758;DHT22;3416;53.074;8.822;2022-09-17T06:49:28;18.10;99.90
6758;DHT22;3416;53.074;8.822;2022-09-17T06:51:55;18.70;99.90
6758;DHT22;3416;53.074;8.822;2022-09-17T06:54:22;18.60;99.90
6758;DHT22;3416;53.074;8.822;2022-09-17T06:56:49;18.90;99.80
6758;DHT22;3416;53.074;8.822;2022-09-17T06:59:16;19.10;98.10
6758;DHT22;3416;53.074;8.822;2022-09-17T07:01:43;19.40;97.30
6758;DHT22;3416;53.074;8.822;2022-09-17T07:04:13;20.10;97.10
6758;DHT22;3416;53.074;8.822;2022-09-17T07:06:43;20.40;94.50
6758;DHT22;3416;53.074;8.822;2022-09-17T07:09:11;20.40;94.40
6758;DHT22;3416;53.074;8.822;2022-09-17T07:11:38;20.90;93.30
6758;DHT22;3416;53.074;8.822;2022-09-17T07:14:06;20.60;92.50
6758;DHT22;3416;53.074;8.822;2022-09-17T07:16:33;20.60;93.20
6758;DHT22;3416;53.074;8.822;2022-09-17T07:19:02;21.00;92.10
6758;DHT22;3416;53.074;8.822;2022-09-17T07:21:29;21.50;91.90
6758;DHT22;3416;53.074;8.822;2022-09-17T07:23:59;22.60;90.70
6758;DHT22;3416;53.074;8.822;2022-09-17T07:26:26;23.00;89.10
6758;DHT22;3416;53.074;8.822;2022-09-17T07:28:53;22.80;88.00
6758;DHT22;3416;53.074;8.822;2022-09-17T07:31:20;21.50;88.80
6758;DHT22;3416;53.074;8.822;2022-09-17T07:33:48;20.60;90.90
6758;DHT22;3416;53.074;8.822;2022-09-17T07:36:15;19.80;92.40
6758;DHT22;3416;53.074;8.822;2022-09-17T07:38:43;19.20;94.00
6758;DHT22;3416;53.074;8.822;2022-09-17T07:41:12;19.20;95.30
6758;DHT22;3416;53.074;8.822;2022-09-17T07:43:40;20.00;93.40
6758;DHT22;3416;53.074;8.822;2022-09-17T07:46:12;21.00;92.00
6758;DHT22;3416;53.074;8.822;2022-09-17T07:48:40;22.00;91.00
6758;DHT22;3416;53.074;8.822;2022-09-17T07:51:06;22.80;88.40
6758;DHT22;3416;53.074;8.822;2022-09-17T07:53:35;23.70;85.20
6758;DHT22;3416;53.074;8.822;2022-09-17T07:56:02;24.20;82.40
6758;DHT22;3416;53.074;8.822;2022-09-17T07:58:33;24.30;81.50
6758;DHT22;3416;53.074;8.822;2022-09-17T08:01:01;24.80;79.80
6758;DHT22;3416;53.074;8.822;2022-09-17T08:03:29;24.90;78.40
6758;DHT22;3416;53.074;8.822;2022-09-17T08:06:08;25.00;76.80
6758;DHT22;3416;53.074;8.822;2022-09-17T08:08:36;25.00;77.00
6758;DHT22;3416;53.074;8.822;2022-09-17T08:11:06;24.80;76.60
6758;DHT22;3416;53.074;8.822;2022-09-17T08:13:35;24.90;78.00
6758;DHT22;3416;53.074;8.822;2022-09-17T08:16:05;25.40;76.80
6758;DHT22;3416;53.074;8.822;2022-09-17T08:18:33;25.60;76.30
6758;DHT22;3416;53.074;8.822;2022-09-17T08:21:02;26.20;75.60
6758;DHT22;3416;53.074;8.822;2022-09-17T08:23:30;25.90;74.00
6758;DHT22;3416;53.074;8.822;2022-09-17T08:26:01;26.60;73.10
6758;DHT22;3416;53.074;8.822;2022-09-17T08:28:29;26.90;72.30
6758;DHT22;3416;53.074;8.822;2022-09-17T08:31:01;26.50;71.70
6758;DHT22;3416;53.074;8.822;2022-09-17T08:33:30;26.40;71.20
6758;DHT22;3416;53.074;8.822;2022-09-17T08:35:58;26.20;71.90
6758;DHT22;3416;53.074;8.822;2022-09-17T08:38:25;25.20;72.80
6758;DHT22;3416;53.074;8.822;2022-09-17T08:41:01;24.60;74.70
6758;DHT22;3416;53.074;8.822;2022-09-17T08:43:34;24.30;75.50
6758;DHT22;3416;53.074;8.822;2022-09-17T08:46:04;25.10;73.60
6758;DHT22;3416;53.074;8.822;2022-09-17T08:48:36;24.80;71.90
6758;DHT22;3416;53.074;8.822;2022-09-17T08:51:15;23.70;72.30
6758;DHT22;3416;53.074;8.822;2022-09-17T08:53:55;22.60;72.80
6758;DHT22;3416;53.074;8.822;2022-09-17T08:56:26;21.40;76.20
6758;DHT22;3416;53.074;8.822;2022-09-17T08:59:12;20.70;78.60
6758;DHT22;3416;53.074;8.822;2022-09-17T09:01:51;20.00;82.10
6758;DHT22;3416;53.074;8.822;2022-09-17T09:04:45;19.40;84.80
6758;DHT22;3416;53.074;8.822;2022-09-17T09:07:17;18.60;88.80
6758;DHT22;3416;53.074;8.822;2022-09-17T09:09:50;18.60;91.40
6758;DHT22;3416;53.074;8.822;2022-09-17T09:12:23;18.50;91.80
6758;DHT22;3416;53.074;8.822;2022-09-17T09:14:55;18.40;92.20
6758;DHT22;3416;53.074;8.822;2022-09-17T09:17:31;18.00;92.60
6758;DHT22;3416;53.074;8.822;2022-09-17T09:20:13;17.40;95.00
6758;DHT22;3416;53.074;8.822;2022-09-17T09:22:46;16.80;98.50
6758;DHT22;3416;53.074;8.822;2022-09-17T09:25:20;16.30;99.90
6758;DHT22;3416;53.074;8.822;2022-09-17T09:28:00;15.40;99.90
6758;DHT22;3416;53.074;8.822;2022-09-17T09:30:34;15.00;99.90
6758;DHT22;3416;53.074;8.822;2022-09-17T09:33:10;14.60;99.90
6758;DHT22;3416;53.074;8.822;2022-09-17T09:35:42;14.30;99.90
6758;DHT22;3416;53.074;8.822;2022-09-17T09:38:17;14.20;99.90
6758;DHT22;3416;53.074;8.822;2022-09-17T09:40:50;14.00;99.90
6758;DHT22;3416;53.074;8.822;2022-09-17T09:43:21;13.90;99.90
6758;DHT22;3416;53.074;8.822;2022-09-17T09:46:07;13.80;99.90
6758;DHT22;3416;53.074;8.822;2022-09-17T09:48:50;13.70;99.90
6758;DHT22;3416;53.074;8.822;2022-09-17T09:51:29;13.60;99.90
6758;DHT22;3416;53.074;8.822;2022-09-17T09:54:10;13.40;99.90
6758;DHT22;3416;53.074;8.822;2022-09-17T09:56:50;13.30;99.90
6758;DHT22;3416;53.074;8.822;2022-09-17T09:59:20;13.40;99.90
6758;DHT22;3416;53.074;8.822;2022-09-17T10:01:47;13.40;99.90
6758;DHT22;3416;53.074;8.822;2022-09-17T10:04:20;13.40;99.90
6758;DHT22;3416;53.074;8.822;2022-09-17T10:06:51;13.30;99.90
6758;DHT22;3416;53.074;8.822;2022-09-17T10:09:20;13.20;99.90
6758;DHT22;3416;53.074;8.822;2022-09-17T10:12:14;13.20;99.90
6758;DHT22;3416;53.074;8.822;2022-09-17T10:14:43;13.20;99.90
6758;DHT22;3416;53.074;8.822;2022-09-17T10:17:20;13.30;99.90
6758;DHT22;3416;53.074;8.822;2022-09-17T10:20:13;13.40;99.90
6758;DHT22;3416;53.074;8.822;2022-09-17T10:22:42;13.20;99.90
6758;DHT22;3416;53.074;8.822;2022-09-17T10:25:27;13.10;99.90
6758;DHT22;3416;53.074;8.822;2022-09-17T10:27:56;13.10;99.90
6758;DHT22;3416;53.074;8.822;2022-09-17T10:30:23;13.10;99.90
6758;DHT22;3416;53.074;8.822;2022-09-17T10:33:14;13.20;99.90
6758;DHT22;3416;53.074;8.822;2022-09-17T10:35:54;13.10;99.90
6758;DHT22;3416;53.074;8.822;2022-09-17T10:38:27;13.00;99.90
6758;DHT22;3416;53.074;8.822;2022-09-17T10:41:10;13.00;99.90
6758;DHT22;3416;53.074;8.822;2022-09-17T10:43:37;13.10;99.90
6758;DHT22;3416;53.074;8.822;2022-09-17T10:46:08;12.90;99.90
6758;DHT22;3416;53.074;8.822;2022-09-17T10:48:39;12.80;99.90
6758;DHT22;3416;53.074;8.822;2022-09-17T10:51:10;12.80;99.90
6758;DHT22;3416;53.074;8.822;2022-09-17T10:56:54;12.70;99.90
6758;DHT22;3416;53.074;8.822;2022-09-17T10:59:56;12.60;99.90
6758;DHT22;3416;53.074;8.822;2022-09-17T11:02:56;12.40;99.90
6758;DHT22;3416;53.074;8.822;2022-09-17T11:05:40;12.30;99.90
6758;DHT22;3416;53.074;8.822;2022-09-17T11:08:16;12.20;99.90
6758;DHT22;3416;53.074;8.822;2022-09-17T11:10:52;12.10;99.90
6758;DHT22;3416;53.074;8.822;2022-09-17T11:13:29;12.10;99.90
6758;DHT22;3416;53.074;8.822;2022-09-17T11:16:14;12.20;99.90
6758;DHT22;3416;53.074;8.822;2022-09-17T11:18:45;12.30;99.90
6758;DHT22;3416;53.074;8.822;2022-09-17T11:21:37;12.40;99.90
6758;DHT22;3416;53.074;8.822;2022-09-17T11:24:37;12.40;99.90
6758;DHT22;3416;53.074;8.822;2022-09-17T11:27:21;12.50;99.90
6758;DHT22;3416;53.074;8.822;2022-09-17T11:30:09;12.50;99.90
6758;DHT22;3416;53.074;8.822;2022-09-17T11:32:50;12.50;99.90
6758;DHT22;3416;53.074;8.822;2022-09-17T11:35:21;12.50;99.90
6758;DHT22;3416;53.074;8.822;2022-09-17T11:37:53;12.50;99.90
6758;DHT22;3416;53.074;8.822;2022-09-17T11:40:26;12.60;99.90
6758;DHT22;3416;53.074;8.822;2022-09-17T11:43:01;12.70;99.90
6758;DHT22;3416;53.074;8.822;2022-09-17T11:45:32;12.80;99.90
6758;DHT22;3416;53.074;8.822;2022-09-17T11:48:04;12.70;99.90
6758;DHT22;3416;53.074;8.822;2022-09-17T11:50:38;12.60;99.90
6758;DHT22;3416;53.074;8.822;2022-09-17T11:53:16;12.50;99.90
6758;DHT22;3416;53.074;8.822;2022-09-17T11:55:49;12.40;99.90
6758;DHT22;3416;53.074;8.822;2022-09-17T11:58:24;12.30;99.90
6758;DHT22;3416;53.074;8.822;2022-09-17T12:00:57;12.30;99.90
6758;DHT22;3416;53.074;8.822;2022-09-17T12:03:29;12.20;99.90
6758;DHT22;3416;53.074;8.822;2022-09-17T12:06:01;12.10;99.90
6758;DHT22;3416;53.074;8.822;2022-09-17T12:08:38;12.20;99.90
6758;DHT22;3416;53.074;8.822;2022-09-17T12:11:13;12.20;99.90
6758;DHT22;3416;53.074;8.822;2022-09-17T12:13:45;12.20;99.90
6758;DHT22;3416;53.074;8.822;2022-09-17T12:16:19;12.20;99.90
6758;DHT22;3416;53.074;8.822;2022-09-17T12:18:56;12.20;99.90
6758;DHT22;3416;53.074;8.822;2022-09-17T12:21:28;12.40;99.90
6758;DHT22;3416;53.074;8.822;2022-09-17T12:23:59;12.50;99.90
6758;DHT22;3416;53.074;8.822;2022-09-17T12:26:53;12.70;99.90
6758;DHT22;3416;53.074;8.822;2022-09-17T12:29:51;13.00;99.90
6758;DHT22;3416;53.074;8.822;2022-09-17T12:35:48;13.40;99.90
6758;DHT22;3416;53.074;8.822;2022-09-17T12:38:28;13.40;99.90
6758;DHT22;3416;53.074;8.822;2022-09-17T12:41:01;13.50;99.90
6758;DHT22;3416;53.074;8.822;2022-09-17T12:43:56;13.50;99.90
6758;DHT22;3416;53.074;8.822;2022-09-17T12:46:41;13.50;99.90
6758;DHT22;3416;53.074;8.822;2022-09-17T12:52:05;13.60;99.90
6758;DHT22;3416;53.074;8.822;2022-09-17T12:57:44;14.00;99.90
6758;DHT22;3416;53.074;8.822;2022-09-17T13:00:16;14.30;99.90
6758;DHT22;3416;53.074;8.822;2022-09-17T13:02:47;14.30;99.90
6758;DHT22;3416;53.074;8.822;2022-09-17T13:08:59;14.50;99.90
6758;DHT22;3416;53.074;8.822;2022-09-17T13:11:53;14.60;99.90
6758;DHT22;3416;53.074;8.822;2022-09-17T13:14:30;14.60;99.90
6758;DHT22;3416;53.074;8.822;2022-09-17T13:17:04;14.70;99.90
6758;DHT22;3416;53.074;8.822;2022-09-17T13:19:37;14.70;99.90
6758;DHT22;3416;53.074;8.822;2022-09-17T13:22:07;14.70;99.90
6758;DHT22;3416;53.074;8.822;2022-09-17T13:24:38;14.60;99.90
6758;DHT22;3416;53.074;8.822;2022-09-17T13:27:19;14.50;99.90
6758;DHT22;3416;53.074;8.822;2022-09-17T13:30:02;14.40;99.90
6758;DHT22;3416;53.074;8.822;2022-09-17T13:32:51;14.10;99.90
6758;DHT22;3416;53.074;8.822;2022-09-17T13:35:46;13.80;99.90
6758;DHT22;3416;53.074;8.822;2022-09-17T13:38:19;13.60;99.90
6758;DHT22;3416;53.074;8.822;2022-09-17T13:40:47;13.30;99.90
6758;DHT22;3416;53.074;8.822;2022-09-17T13:43:18;13.10;99.90
6758;DHT22;3416;53.074;8.822;2022-09-17T13:46:09;13.00;99.90
6758;DHT22;3416;53.074;8.822;2022-09-17T13:48:46;13.10;99.90
6758;DHT22;3416;53.074;8.822;2022-09-17T13:51:49;13.30;99.90
6758;DHT22;3416;53.074;8.822;2022-09-17T13:54:21;13.40;99.90
6758;DHT22;3416;53.074;8.822;2022-09-17T13:59:55;13.50;99.90
6758;DHT22;3416;53.074;8.822;2022-09-17T14:02:33;13.60;99.90
6758;DHT22;3416;53.074;8.822;2022-09-17T14:08:12;13.90;99.90
6758;DHT22;3416;53.074;8.822;2022-09-17T14:10:49;14.00;99.90
6758;DHT22;3416;53.074;8.822;2022-09-17T14:16:31;14.10;99.90
6758;DHT22;3416;53.074;8.822;2022-09-17T14:22:00;14.00;99.90
6758;DHT22;3416;53.074;8.822;2022-09-17T14:24:36;13.90;99.90
6758;DHT22;3416;53.074;8.822;2022-09-17T14:27:13;13.70;99.90
6758;DHT22;3416;53.074;8.822;2022-09-17T14:29:52;13.50;99.90
6758;DHT22;3416;53.074;8.822;2022-09-17T14:32:27;13.40;99.90
6758;DHT22;3416;53.074;8.822;2022-09-17T14:35:00;13.30;99.90
6758;DHT22;3416;53.074;8.822;2022-09-17T14:37:29;13.30;99.90
6758;DHT22;3416;53.074;8.822;2022-09-17T14:39:59;13.20;99.90
6758;DHT22;3416;53.074;8.822;2022-09-17T14:42:30;13.10;99.90
6758;DHT22;3416;53.074;8.822;2022-09-17T14:45:03;13.10;99.90
6758;DHT22;3416;53.074;8.822;2022-09-17T14:47:32;13.10;99.90
6758;DHT22;3416;53.074;8.822;2022-09-17T14:50:23;13.10;99.90
6758;DHT22;3416;53.074;8.822;2022-09-17T14:52:53;13.20;99.90
6758;DHT22;3416;53.074;8.822;2022-09-17T14:55:22;13.20;99.90
6758;DHT22;3416;53.074;8.822;2022-09-17T14:57:54;13.20;99.90
6758;DHT22;3416;53.074;8.822;2022-09-17T15:00:23;13.20;99.90
6758;DHT22;3416;53.074;8.822;2022-09-17T15:02:52;13.30;99.90
6758;DHT22;3416;53.074;8.822;2022-09-17T15:05:25;13.30;99.90
6758;DHT22;3416;53.074;8.822;2022-09-17T15:08:10;13.30;99.90
6758;DHT22;3416;53.074;8.822;2022-09-17T15:10:45;13.30;99.90
6758;DHT22;3416;53.074;8.822;2022-09-17T15:13:15;13.30;99.90
6758;DHT22;3416;53.074;8.822;2022-09-17T15:15:55;13.30;99.90
6758;DHT22;3416;53.074;8.822;2022-09-17T15:18:31;13.30;99.90
6758;DHT22;3416;53.074;8.822;2022-09-17T15:21:03;13.30;99.90
6758;DHT22;3416;53.074;8.822;2022-09-17T15:23:35;13.40;99.90
6758;DHT22;3416;53.074;8.822;2022-09-17T15:26:02;13.50;99.90
6758;DHT22;3416;53.074;8.822;2022-09-17T15:28:33;13.60;99.90
6758;DHT22;3416;53.074;8.822;2022-09-17T15:31:03;13.60;99.90
6758;DHT22;3416;53.074;8.822;2022-09-17T15:33:31;13.70;99.90
6758;DHT22;3416;53.074;8.822;2022-09-17T15:36:01;13.70;99.90
6758;DHT22;3416;53.074;8.822;2022-09-17T15:38:36;13.80;99.90
6758;DHT22;3416;53.074;8.822;2022-09-17T15:41:22;13.80;99.90
6758;DHT22;3416;53.074;8.822;2022-09-17T15:43:50;13.80;99.90
6758;DHT22;3416;53.074;8.822;2022-09-17T15:46:25;13.70;99.90
6758;DHT22;3416;53.074;8.822;2022-09-17T15:48:53;13.70;99.90
6758;DHT22;3416;53.074;8.822;2022-09-17T15:51:25;13.60;99.90
6758;DHT22;3416;53.074;8.822;2022-09-17T15:53:56;13.60;99.90
6758;DHT22;3416;53.074;8.822;2022-09-17T15:56:26;13.60;99.90
6758;DHT22;3416;53.074;8.822;2022-09-17T15:58:58;13.50;99.90
6758;DHT22;3416;53.074;8.822;2022-09-17T16:04:28;13.50;99.90
6758;DHT22;3416;53.074;8.822;2022-09-17T16:06:58;13.20;99.90
6758;DHT22;3416;53.074;8.822;2022-09-17T16:09:39;13.20;99.90
6758;DHT22;3416;53.074;8.822;2022-09-17T16:12:08;13.20;99.90
6758;DHT22;3416;53.074;8.822;2022-09-17T16:14:36;13.10;99.90
6758;DHT22;3416;53.074;8.822;2022-09-17T16:17:24;13.10;99.90
6758;DHT22;3416;53.074;8.822;2022-09-17T16:19:53;13.10;99.90
6758;DHT22;3416;53.074;8.822;2022-09-17T16:22:20;13.00;99.90
6758;DHT22;3416;53.074;8.822;2022-09-17T16:24:56;12.90;99.90
6758;DHT22;3416;53.074;8.822;2022-09-17T16:27:25;12.80;99.90
6758;DHT22;3416;53.074;8.822;2022-09-17T16:30:03;12.80;99.90
6758;DHT22;3416;53.074;8.822;2022-09-17T16:32:30;12.70;99.90
6758;DHT22;3416;53.074;8.822;2022-09-17T16:34:57;12.60;99.90
6758;DHT22;3416;53.074;8.822;2022-09-17T16:37:24;12.60;99.90
6758;DHT22;3416;53.074;8.822;2022-09-17T16:39:51;12.50;99.90
6758;DHT22;3416;53.074;8.822;2022-09-17T16:42:19;12.50;99.90
6758;DHT22;3416;53.074;8.822;2022-09-17T16:44:46;12.60;99.90
6758;DHT22;3416;53.074;8.822;2022-09-17T16:47:13;12.60;99.90
6758;DHT22;3416;53.074;8.822;2022-09-17T16:49:40;12.70;99.90
6758;DHT22;3416;53.074;8.822;2022-09-17T16:52:07;12.80;99.90
6758;DHT22;3416;53.074;8.822;2022-09-17T16:54:34;12.90;99.90
6758;DHT22;3416;53.074;8.822;2022-09-17T16:57:03;13.00;99.90
6758;DHT22;3416;53.074;8.822;2022-09-17T16:59:31;13.00;99.90
6758;DHT22;3416;53.074;8.822;2022-09-17T17:01:58;13.00;99.90
6758;DHT22;3416;53.074;8.822;2022-09-17T17:04:25;12.90;99.90
6758;DHT22;3416;53.074;8.822;2022-09-17T17:06:51;13.00;99.90
6758;DHT22;3416;53.074;8.822;2022-09-17T17:09:18;12.90;99.90
6758;DHT22;3416;53.074;8.822;2022-09-17T17:11:45;12.90;99.90
6758;DHT22;3416;53.074;8.822;2022-09-17T17:14:12;12.90;99.90
6758;DHT22;3416;53.074;8.822;2022-09-17T17:16:40;13.00;99.90